KPSP/PSP METAR and TAF weather

Enter ICAO airport designator
Station Type Date Time Source
KPSP METAR 2021/09/25 11:53 UTC NOAA

KPSP 251153Z AUTO 00000KT 10SM CLR 24/18 A2994 RMK AO2 SLP134 70004 T02390183 10267 20233 55001


Station Type Date Time Source
KPSP Decoded METAR 2021/09/25 11:53 UTC NOAA

PALM SPRINGS REGIONAL AIRPORT , CA, United States (KPSP) 33-50N 116-30W 135M
Sep 25, 2021 - 07:53 AM EDT / 2021.09.25 1153 UTC
Wind: Calm:0
Visibility: 10 mile(s):0
Sky conditions: clear
Temperature: 75.0 F (23.9 C)
Dew Point: 64.9 F (18.3 C)
Relative Humidity: 70%
Pressure (altimeter): 29.94 in. Hg (1013 hPa)
Pressure tendency: 0.00 inches (0.1 hPa) lower than three hours ago
ob: KPSP 251153Z AUTO 00000KT 10SM CLR 24/18 A2994 RMK AO2 SLP134 70004 T02390183 10267 20233 55001
cycle: 12

Station Type Date Time Source
KPSP TAF 2021/09/25 12:27 UTC NOAA

TAF KPSP 251125Z 2512/2612 VRB04KT P6SM VCSH SCT120 BKN250
FM251800 11008KT P6SM SCT250
FM260300 33007KT P6SM SCT250
FM260600 33004KT P6SM SKC

Example: see airport list